createdAt,value
2017-07-16T00:00:39.458Z,46.09
2017-07-16T00:01:39.482Z,46.39
2017-07-16T00:02:39.837Z,46.29
2017-07-16T00:03:39.540Z,46.19
2017-07-16T00:04:39.887Z,46.19
2017-07-16T00:05:39.601Z,46.29
2017-07-16T00:06:39.631Z,46.29
2017-07-16T00:07:39.975Z,46.02
2017-07-16T00:08:40.008Z,45.9
2017-07-16T00:09:40.030Z,45.81
2017-07-16T00:10:40.305Z,45.81
2017-07-16T00:11:40.095Z,45.9
2017-07-16T00:12:40.107Z,46.29
2017-07-16T00:13:39.823Z,46.39
2017-07-16T00:14:40.174Z,46.29
2017-07-16T00:15:40.134Z,46.19
2017-07-16T00:16:40.234Z,46.29
2017-07-16T00:17:40.260Z,46.29
2017-07-16T00:18:40.284Z,46.41
2017-07-16T00:19:40.309Z,46.29
2017-07-16T00:20:40.603Z,45.9
2017-07-16T00:21:40.375Z,46.39
2017-07-16T00:22:40.404Z,46.48
2017-07-16T00:23:40.419Z,46.29
2017-07-16T00:24:40.141Z,45.9
2017-07-16T00:25:40.742Z,46.39
2017-07-16T00:26:40.519Z,46.09
2017-07-16T00:27:40.548Z,46.09
2017-07-16T00:28:40.568Z,46.09
2017-07-16T00:29:40.282Z,46.09
2017-07-16T00:30:40.615Z,46.19
2017-07-16T00:31:40.335Z,46.19
2017-07-16T00:32:40.690Z,46
2017-07-16T00:33:40.712Z,46
2017-07-16T00:34:40.429Z,46.19
2017-07-16T00:35:40.709Z,46
2017-07-16T00:36:40.792Z,46.19
2017-07-16T00:37:40.827Z,46.19
2017-07-16T00:38:40.860Z,46.29
2017-07-16T00:39:40.888Z,46.19
2017-07-16T00:40:40.892Z,46
2017-07-16T00:41:40.948Z,46.39
2017-07-16T00:42:40.974Z,46
2017-07-16T00:43:41.004Z,46.09
2017-07-16T00:44:41.027Z,46.09
2017-07-16T00:45:41.313Z,46.39
2017-07-16T00:46:41.078Z,46.29
2017-07-16T00:47:41.107Z,46.39
2017-07-16T00:48:41.140Z,46
2017-07-16T00:49:40.849Z,46.09
2017-07-16T00:50:40.901Z,45.9
2017-07-16T00:51:40.906Z,46.39
2017-07-16T00:52:41.242Z,45.9
2017-07-16T00:53:41.282Z,46.29
2017-07-16T00:54:40.997Z,46.48
2017-07-16T00:55:41.338Z,46.29
2017-07-16T00:56:41.047Z,46.29
2017-07-16T00:57:41.387Z,46.48
2017-07-16T00:58:41.108Z,46.19
2017-07-16T00:59:41.448Z,45.9
2017-07-16T01:00:41.157Z,46.39
2017-07-16T01:01:41.511Z,46.48
2017-07-16T01:02:41.223Z,46.48
2017-07-16T01:03:41.572Z,46.48
2017-07-16T01:04:41.588Z,46.39
2017-07-16T01:05:41.630Z,46.39
2017-07-16T01:06:41.651Z,46.48
2017-07-16T01:07:41.683Z,46.48
2017-07-16T01:08:41.393Z,46.58
2017-07-16T01:09:41.430Z,46.58
2017-07-16T01:10:41.450Z,46.58
2017-07-16T01:11:41.794Z,46.77
2017-07-16T01:12:41.827Z,46.58
2017-07-16T01:13:41.856Z,46.29
2017-07-16T01:14:41.885Z,46.48
2017-07-16T01:15:41.588Z,46.39
2017-07-16T01:16:41.622Z,46.48
2017-07-16T01:17:41.967Z,46.39
2017-07-16T01:18:41.676Z,46.39
2017-07-16T01:19:42.028Z,46.58
2017-07-16T01:20:41.732Z,46.48
2017-07-16T01:21:41.763Z,46.48
2017-07-16T01:22:42.106Z,46.48
2017-07-16T01:23:42.132Z,46.67
2017-07-16T01:24:42.165Z,46.58
2017-07-16T01:25:42.198Z,46.39
2017-07-16T01:26:42.482Z,46.67
2017-07-16T01:27:42.260Z,46.58
2017-07-16T01:28:42.280Z,46.67
2017-07-16T01:29:41.984Z,46.77
2017-07-16T01:30:42.336Z,46.48
2017-07-16T01:31:42.347Z,46.77
2017-07-16T01:32:42.072Z,46.58
2017-07-16T01:33:42.421Z,46.58
2017-07-16T01:34:42.448Z,46.48
2017-07-16T01:35:42.476Z,46.97
2017-07-16T01:36:42.759Z,46.58
2017-07-16T01:37:42.216Z,46.97
2017-07-16T01:38:42.246Z,46.58
2017-07-16T01:39:42.273Z,46.48
2017-07-16T01:40:42.617Z,46.97
2017-07-16T01:41:42.894Z,46.48
2017-07-16T01:42:42.672Z,46.48
2017-07-16T01:43:42.704Z,46.48
2017-07-16T01:44:42.731Z,46.48
2017-07-16T01:45:42.754Z,46.87
2017-07-16T01:46:42.766Z,46.58
2017-07-16T01:47:42.500Z,46.48
2017-07-16T01:48:42.848Z,46.48
2017-07-16T01:49:42.556Z,46.87
2017-07-16T01:50:42.577Z,46.39
2017-07-16T01:51:43.185Z,46.87
2017-07-16T01:52:42.959Z,46.87
2017-07-16T01:53:42.671Z,46.39
2017-07-16T01:54:42.705Z,46.29
2017-07-16T01:55:43.045Z,46.48
2017-07-16T01:56:43.006Z,46.58
2017-07-16T01:57:42.783Z,46.58
2017-07-16T01:58:43.128Z,46.58
2017-07-16T01:59:43.160Z,46.97
2017-07-16T02:00:43.189Z,47.06
2017-07-16T02:01:43.151Z,46.58
2017-07-16T02:02:43.239Z,46.58
2017-07-16T02:03:43.287Z,46.48
2017-07-16T02:04:42.976Z,46.58
2017-07-16T02:05:43.001Z,46.97
2017-07-16T02:06:43.651Z,46.97
2017-07-16T02:07:43.067Z,46.58
2017-07-16T02:08:43.409Z,46.58
2017-07-16T02:09:43.445Z,46.48
2017-07-16T02:10:43.154Z,46.67
2017-07-16T02:11:43.178Z,46.58
2017-07-16T02:12:43.519Z,46.48
2017-07-16T02:13:43.557Z,46.97
2017-07-16T02:14:43.260Z,46.97
2017-07-16T02:15:43.613Z,46.97
2017-07-16T02:16:43.650Z,46.97
2017-07-16T02:17:43.676Z,46.77
2017-07-16T02:18:43.692Z,46.97
2017-07-16T02:19:43.408Z,46.58
2017-07-16T02:20:43.749Z,46.58
2017-07-16T02:21:43.463Z,46.48
2017-07-16T02:22:43.798Z,46.48
2017-07-16T02:23:43.835Z,46.48
2017-07-16T02:24:43.868Z,46.48
2017-07-16T02:25:43.897Z,46.87
2017-07-16T02:26:43.936Z,46.48
2017-07-16T02:27:43.632Z,46.97
2017-07-16T02:28:43.976Z,46.48
2017-07-16T02:29:43.684Z,46.58
2017-07-16T02:30:44.029Z,46.97
2017-07-16T02:31:43.739Z,46.97
2017-07-16T02:32:44.090Z,46.48
2017-07-16T02:33:44.112Z,46.87
2017-07-16T02:34:43.824Z,46.48
2017-07-16T02:35:44.170Z,46.48
2017-07-16T02:36:44.202Z,46.87
2017-07-16T02:37:44.231Z,46.87
2017-07-16T02:38:44.259Z,46.58
2017-07-16T02:39:44.285Z,46.87
2017-07-16T02:40:44.322Z,46.97
2017-07-16T02:41:44.026Z,46.97
2017-07-16T02:42:44.371Z,46.58
2017-07-16T02:43:44.398Z,46.48
2017-07-16T02:44:44.441Z,46.87
2017-07-16T02:45:44.141Z,46.87
2017-07-16T02:46:44.522Z,46.87
2017-07-16T02:47:44.514Z,46.87
2017-07-16T02:48:44.540Z,46.97
2017-07-16T02:49:44.568Z,46.97
2017-07-16T02:50:44.282Z,46.97
2017-07-16T02:51:44.309Z,46.97
2017-07-16T02:52:44.911Z,46.58
2017-07-16T02:53:44.679Z,46.58
2017-07-16T02:54:44.396Z,46.58
2017-07-16T02:55:44.425Z,46.87
2017-07-16T02:56:44.765Z,46.58
2017-07-16T02:57:45.098Z,46.58
2017-07-16T02:58:44.512Z,46.67
2017-07-16T02:59:44.853Z,46.58
2017-07-16T03:00:44.565Z,46.58
2017-07-16T03:01:44.593Z,46.58
2017-07-16T03:02:45.236Z,46.67
2017-07-16T03:03:44.974Z,46.77
2017-07-16T03:04:44.684Z,46.58
2017-07-16T03:05:45.032Z,46.67
2017-07-16T03:06:45.053Z,46.97
2017-07-16T03:07:45.338Z,46.67
2017-07-16T03:08:45.109Z,46.77
2017-07-16T03:09:44.832Z,46.48
2017-07-16T03:10:45.160Z,46.67
2017-07-16T03:11:45.197Z,46.48
2017-07-16T03:12:45.157Z,46.58
2017-07-16T03:13:45.243Z,46.67
2017-07-16T03:14:45.280Z,46.29
2017-07-16T03:15:45.305Z,46.67
2017-07-16T03:16:45.330Z,46.67
2017-07-16T03:17:45.298Z,46.58
2017-07-16T03:18:45.395Z,46.48
2017-07-16T03:19:45.414Z,46.58
2017-07-16T03:20:45.129Z,46.39
2017-07-16T03:21:45.470Z,46.58
2017-07-16T03:22:45.793Z,47.06
2017-07-16T03:23:45.531Z,46.67
2017-07-16T03:24:45.243Z,46.58
2017-07-16T03:25:45.272Z,46.67
2017-07-16T03:26:45.621Z,46.56
2017-07-16T03:27:45.581Z,46.77
2017-07-16T03:28:45.354Z,46.87
2017-07-16T03:29:45.707Z,46.77
2017-07-16T03:30:45.732Z,46.58
2017-07-16T03:31:45.761Z,46.87
2017-07-16T03:32:46.085Z,46.97
2017-07-16T03:33:45.495Z,46.77
2017-07-16T03:34:45.843Z,46.58
2017-07-16T03:35:45.878Z,46.77
2017-07-16T03:36:45.582Z,46.67
2017-07-16T03:37:46.183Z,46.87
2017-07-16T03:38:45.959Z,46.87
2017-07-16T03:39:45.987Z,46.77
2017-07-16T03:40:46.012Z,46.48
2017-07-16T03:41:46.037Z,46.77
2017-07-16T03:42:46.053Z,46.97
2017-07-16T03:43:45.779Z,46.48
2017-07-16T03:44:45.809Z,46.67
2017-07-16T03:45:45.837Z,47.16
2017-07-16T03:46:45.861Z,47.36
2017-07-16T03:47:46.142Z,47.36
2017-07-16T03:48:46.244Z,47.26
2017-07-16T03:49:46.271Z,47.55
2017-07-16T03:50:45.980Z,47.26
2017-07-16T03:51:46.322Z,47.24
2017-07-16T03:52:46.662Z,47.24
2017-07-16T03:53:46.063Z,47.55
2017-07-16T03:54:46.092Z,47.55
2017-07-16T03:55:46.121Z,47.26
2017-07-16T03:56:46.461Z,47.45
2017-07-16T03:57:46.174Z,47.55
2017-07-16T03:58:46.518Z,47.16
2017-07-16T03:59:46.548Z,47.24
2017-07-16T04:00:46.569Z,47.06
2017-07-16T04:01:46.607Z,47.26
2017-07-16T04:02:46.638Z,47.26
2017-07-16T04:03:46.663Z,47.36
2017-07-16T04:04:46.699Z,47.45
2017-07-16T04:05:46.720Z,47.64
2017-07-16T04:06:46.737Z,47.26
2017-07-16T04:07:46.778Z,47.52
2017-07-16T04:08:46.512Z,47.74
2017-07-16T04:09:46.832Z,47.74
2017-07-16T04:10:46.540Z,47.36
2017-07-16T04:11:46.878Z,47.45
2017-07-16T04:12:46.918Z,47.16
2017-07-16T04:13:46.947Z,47.16
2017-07-16T04:14:46.973Z,47.16
2017-07-16T04:15:47.005Z,47.36
2017-07-16T04:16:46.713Z,47.26
2017-07-16T04:17:47.054Z,46.97
2017-07-16T04:18:47.085Z,47.16
2017-07-16T04:19:47.112Z,47.16
2017-07-16T04:20:46.823Z,47.26
2017-07-16T04:21:47.174Z,47.45
2017-07-16T04:22:46.882Z,47.26
2017-07-16T04:23:46.912Z,47.55
2017-07-16T04:24:47.260Z,47.36
2017-07-16T04:25:47.285Z,47.52
2017-07-16T04:26:46.990Z,47.26
2017-07-16T04:27:47.335Z,47.26
2017-07-16T04:28:47.047Z,47.36
2017-07-16T04:29:47.393Z,47.52
2017-07-16T04:30:47.430Z,47.55
2017-07-16T04:31:47.453Z,47.64
2017-07-16T04:32:47.483Z,47.64
2017-07-16T04:33:47.506Z,47.45
2017-07-16T04:34:47.538Z,47.64
2017-07-16T04:35:47.568Z,47.45
2017-07-16T04:36:47.597Z,47.45
2017-07-16T04:37:47.304Z,47.14
2017-07-16T04:38:47.653Z,47.26
2017-07-16T04:39:47.359Z,47.26
2017-07-16T04:40:47.709Z,47.16
2017-07-16T04:41:47.734Z,47.36
2017-07-16T04:42:47.442Z,47.26
2017-07-16T04:43:47.471Z,47.64
2017-07-16T04:44:47.496Z,47.55
2017-07-16T04:45:47.840Z,47.74
2017-07-16T04:46:47.883Z,47.36
2017-07-16T04:47:47.586Z,47.36
2017-07-16T04:48:47.935Z,47.36
2017-07-16T04:49:47.960Z,47.26
2017-07-16T04:50:47.985Z,47.26
2017-07-16T04:51:47.700Z,47.26
2017-07-16T04:52:48.047Z,47.36
2017-07-16T04:53:48.075Z,47.26
2017-07-16T04:54:48.105Z,47.36
2017-07-16T04:55:47.808Z,47.26
2017-07-16T04:56:47.841Z,47.33
2017-07-16T04:57:47.871Z,47.26
2017-07-16T04:58:48.143Z,47.26
2017-07-16T04:59:47.921Z,47.36
2017-07-16T05:00:48.278Z,47.26
2017-07-16T05:01:47.986Z,47.16
2017-07-16T05:02:48.323Z,47.16
2017-07-16T05:03:48.289Z,47.06
2017-07-16T05:04:48.385Z,47.26
2017-07-16T05:05:48.091Z,47.36
2017-07-16T05:06:48.120Z,47.55
2017-07-16T05:07:48.147Z,47.26
2017-07-16T05:08:48.476Z,47.16
2017-07-16T05:09:48.524Z,47.26
2017-07-16T05:10:48.553Z,47.16
2017-07-16T05:11:48.264Z,47.36
2017-07-16T05:12:48.611Z,47.16
2017-07-16T05:13:48.620Z,47.26
2017-07-16T05:14:48.663Z,46.97
2017-07-16T05:15:48.694Z,47.16
2017-07-16T05:16:48.407Z,46.97
2017-07-16T05:17:48.766Z,47.16
2017-07-16T05:18:48.760Z,47.36
2017-07-16T05:19:48.816Z,47.36
2017-07-16T05:20:48.838Z,47.45
2017-07-16T05:21:48.868Z,47.45
2017-07-16T05:22:48.887Z,47.84
2017-07-16T05:23:48.908Z,47.91
2017-07-16T05:24:48.942Z,47.74
2017-07-16T05:25:48.979Z,47.55
2017-07-16T05:26:48.691Z,47.45
2017-07-16T05:27:49.042Z,47.74
2017-07-16T05:28:49.309Z,47.74
2017-07-16T05:29:48.774Z,47.55
2017-07-16T05:30:48.799Z,47.55
2017-07-16T05:31:48.828Z,47.64
2017-07-16T05:32:49.180Z,47.74
2017-07-16T05:33:48.885Z,47.55
2017-07-16T05:34:49.234Z,47.55
2017-07-16T05:35:48.943Z,47.45
2017-07-16T05:36:49.287Z,47.74
2017-07-16T05:37:49.000Z,47.74
2017-07-16T05:38:49.345Z,47.64
2017-07-16T05:39:49.374Z,47.55
2017-07-16T05:40:49.402Z,47.64
2017-07-16T05:41:49.427Z,47.55
2017-07-16T05:42:49.461Z,47.64
2017-07-16T05:43:49.163Z,47.45
2017-07-16T05:44:49.196Z,47.55
2017-07-16T05:45:49.551Z,47.55
2017-07-16T05:46:49.600Z,47.62
2017-07-16T05:47:49.593Z,47.84
2017-07-16T05:48:49.621Z,47.45
2017-07-16T05:49:49.334Z,47.45
2017-07-16T05:50:49.684Z,47.55
2017-07-16T05:51:49.388Z,47.55
2017-07-16T05:52:49.737Z,47.64
2017-07-16T05:53:49.448Z,47.74
2017-07-16T05:54:49.478Z,47.45
2017-07-16T05:55:49.828Z,47.62
2017-07-16T05:56:49.844Z,47.74
2017-07-16T05:57:49.557Z,47.64
2017-07-16T05:58:49.590Z,47.55
2017-07-16T05:59:49.618Z,47.64
2017-07-16T06:00:49.962Z,47.94
2017-07-16T06:01:49.996Z,47.94
2017-07-16T06:02:49.706Z,48.03
2017-07-16T06:03:50.041Z,47.94
2017-07-16T06:04:50.083Z,47.94
2017-07-16T06:05:49.787Z,47.84
2017-07-16T06:06:50.135Z,47.84
2017-07-16T06:07:50.156Z,47.74
2017-07-16T06:08:49.870Z,47.84
2017-07-16T06:09:50.221Z,47.94
2017-07-16T06:10:50.249Z,47.55
2017-07-16T06:11:50.271Z,47.84
2017-07-16T06:12:49.980Z,47.55
2017-07-16T06:13:50.336Z,47.64
2017-07-16T06:14:50.358Z,47.36
2017-07-16T06:15:50.071Z,47.74
2017-07-16T06:16:50.416Z,47.64
2017-07-16T06:17:50.448Z,47.74
2017-07-16T06:18:50.154Z,48.03
2017-07-16T06:19:50.497Z,47.74
2017-07-16T06:20:50.210Z,47.74
2017-07-16T06:21:50.554Z,47.94
2017-07-16T06:22:50.580Z,47.74
2017-07-16T06:23:50.294Z,47.84
2017-07-16T06:24:50.319Z,47.94
2017-07-16T06:25:50.350Z,47.84
2017-07-16T06:26:50.699Z,47.74
2017-07-16T06:27:50.724Z,47.64
2017-07-16T06:28:50.432Z,47.55
2017-07-16T06:29:50.465Z,47.74
2017-07-16T06:30:50.815Z,47.64
2017-07-16T06:31:50.523Z,47.55
2017-07-16T06:32:50.869Z,47.74
2017-07-16T06:33:50.896Z,47.84
2017-07-16T06:34:50.612Z,47.74
2017-07-16T06:35:50.954Z,47.45
2017-07-16T06:36:50.663Z,47.94
2017-07-16T06:37:51.012Z,47.74
2017-07-16T06:38:51.039Z,47.45
2017-07-16T06:39:50.740Z,47.94
2017-07-16T06:40:51.088Z,47.84
2017-07-16T06:41:50.799Z,47.55
2017-07-16T06:42:51.148Z,47.55
2017-07-16T06:43:51.181Z,47.26
2017-07-16T06:44:51.210Z,47.64
2017-07-16T06:45:51.246Z,47.26
2017-07-16T06:46:50.946Z,47.45
2017-07-16T06:47:51.290Z,47.45
2017-07-16T06:48:51.325Z,47.26
2017-07-16T06:49:51.034Z,47.26
2017-07-16T06:50:51.378Z,47.45
2017-07-16T06:51:51.090Z,47.26
2017-07-16T06:52:51.436Z,47.45
2017-07-16T06:53:51.468Z,47.74
2017-07-16T06:54:51.165Z,47.74
2017-07-16T06:55:51.514Z,47.26
2017-07-16T06:56:51.542Z,47.36
2017-07-16T06:57:51.576Z,47.64
2017-07-16T06:58:51.287Z,47.26
2017-07-16T06:59:51.634Z,47.45
2017-07-16T07:00:51.656Z,47.36
2017-07-16T07:01:51.686Z,47.26
2017-07-16T07:02:51.720Z,47.26
2017-07-16T07:03:51.749Z,47.45
2017-07-16T07:04:51.454Z,47.55
2017-07-16T07:05:51.487Z,47.45
2017-07-16T07:06:51.827Z,47.47
2017-07-16T07:07:51.861Z,47.77
2017-07-16T07:08:51.569Z,47.57
2017-07-16T07:09:51.593Z,47.67
2017-07-16T07:10:51.626Z,47.86
2017-07-16T07:11:51.651Z,47.67
2017-07-16T07:12:52.009Z,47.74
2017-07-16T07:13:51.708Z,47.74
2017-07-16T07:14:51.733Z,47.86
2017-07-16T07:15:52.087Z,47.77
2017-07-16T07:16:51.796Z,47.67
2017-07-16T07:17:52.144Z,47.38
2017-07-16T07:18:51.855Z,48.25
2017-07-16T07:19:51.882Z,48.35
2017-07-16T07:20:51.910Z,48.25
2017-07-16T07:21:52.257Z,48.25
2017-07-16T07:22:52.281Z,48.06
2017-07-16T07:23:52.313Z,48.25
2017-07-16T07:24:52.343Z,48.15
2017-07-16T07:25:52.050Z,47.96
2017-07-16T07:26:52.395Z,48.54
2017-07-16T07:27:52.433Z,48.15
2017-07-16T07:28:52.457Z,48.25
2017-07-16T07:29:52.478Z,48.35
2017-07-16T07:30:52.513Z,47.96
2017-07-16T07:31:52.224Z,48.44
2017-07-16T07:32:52.581Z,48.64
2017-07-16T07:33:52.610Z,47.96
2017-07-16T07:34:52.614Z,48.15
2017-07-16T07:35:52.327Z,48.06
2017-07-16T07:36:52.364Z,48.35
2017-07-16T07:37:52.714Z,48.44
2017-07-16T07:38:52.742Z,48.25
2017-07-16T07:39:53.039Z,48.15
2017-07-16T07:40:52.796Z,48.44
2017-07-16T07:41:52.829Z,48.25
2017-07-16T07:42:52.536Z,48.15
2017-07-16T07:43:52.566Z,48.25
2017-07-16T07:44:52.847Z,48.35
2017-07-16T07:45:52.942Z,48.54
2017-07-16T07:46:52.964Z,48.25
2017-07-16T07:47:52.992Z,48.15
2017-07-16T07:48:53.018Z,48.25
2017-07-16T07:49:53.306Z,48.25
2017-07-16T07:50:52.761Z,48.25
2017-07-16T07:51:53.113Z,48.15
2017-07-16T07:52:53.141Z,47.96
2017-07-16T07:53:53.173Z,47.86
2017-07-16T07:54:53.453Z,47.77
2017-07-16T07:55:53.219Z,48.15
2017-07-16T07:56:53.244Z,48.25
2017-07-16T07:57:53.284Z,47.86
2017-07-16T07:58:53.304Z,47.38
2017-07-16T07:59:53.589Z,47.77
2017-07-16T08:00:53.393Z,47.67
2017-07-16T08:01:53.401Z,47.86
2017-07-16T08:02:53.425Z,47.86
2017-07-16T08:03:53.458Z,47.38
2017-07-16T08:04:53.743Z,47.57
2017-07-16T08:05:53.511Z,47.47
2017-07-16T08:06:53.544Z,47.67
2017-07-16T08:07:53.569Z,47.57
2017-07-16T08:08:53.275Z,47.77
2017-07-16T08:09:53.925Z,47.96
2017-07-16T08:10:53.656Z,47.86
2017-07-16T08:11:53.360Z,47.47
2017-07-16T08:12:53.721Z,47.38
2017-07-16T08:13:53.737Z,47.28
2017-07-16T08:14:54.018Z,47.28
2017-07-16T08:15:53.787Z,47.28
2017-07-16T08:16:53.829Z,47.67
2017-07-16T08:17:53.850Z,47.67
2017-07-16T08:18:53.881Z,47.47
2017-07-16T08:19:53.888Z,47.67
2017-07-16T08:20:53.610Z,47.86
2017-07-16T08:21:53.969Z,47.86
2017-07-16T08:22:53.672Z,47.77
2017-07-16T08:23:54.026Z,47.86
2017-07-16T08:24:54.306Z,47.57
2017-07-16T08:25:54.083Z,47.47
2017-07-16T08:26:53.792Z,47.86
2017-07-16T08:27:53.819Z,47.67
2017-07-16T08:28:54.165Z,47.57
2017-07-16T08:29:53.875Z,47.4
2017-07-16T08:30:53.904Z,47.57
2017-07-16T08:31:54.248Z,47.77
2017-07-16T08:32:54.277Z,47.96
2017-07-16T08:33:54.301Z,47.67
2017-07-16T08:34:54.014Z,47.67
2017-07-16T08:35:54.368Z,47.47
2017-07-16T08:36:54.395Z,47.38
2017-07-16T08:37:54.429Z,47.19
2017-07-16T08:38:54.133Z,47.47
2017-07-16T08:39:54.158Z,47.47
2017-07-16T08:40:54.512Z,47.38
2017-07-16T08:41:54.533Z,47.38
2017-07-16T08:42:54.563Z,47.28
2017-07-16T08:43:54.596Z,47.28
2017-07-16T08:44:54.663Z,47.57
2017-07-16T08:45:54.336Z,47.47
2017-07-16T08:46:54.686Z,47.67
2017-07-16T08:47:54.707Z,47.57
2017-07-16T08:48:54.745Z,47.47
2017-07-16T08:49:54.769Z,47.19
2017-07-16T08:50:54.477Z,47.28
2017-07-16T08:51:54.503Z,47.2
2017-07-16T08:52:54.531Z,47.38
2017-07-16T08:53:54.564Z,47.28
2017-07-16T08:54:54.587Z,47.19
2017-07-16T08:55:54.930Z,47.28
2017-07-16T08:56:55.027Z,47.38
2017-07-16T08:57:54.673Z,47.28
2017-07-16T08:58:54.704Z,46.7
2017-07-16T08:59:54.768Z,47.02
2017-07-16T09:00:54.766Z,47.4
2017-07-16T09:01:54.790Z,46.92
2017-07-16T09:02:55.191Z,47.02
2017-07-16T09:03:55.163Z,46.92
2017-07-16T09:04:55.200Z,46.72
2017-07-16T09:05:55.233Z,46.72
2017-07-16T09:06:54.930Z,46.62
2017-07-16T09:07:54.958Z,46.82
2017-07-16T09:08:54.991Z,46.53
2017-07-16T09:09:55.341Z,46.72
2017-07-16T09:10:55.098Z,46.82
2017-07-16T09:11:55.069Z,46.82
2017-07-16T09:12:55.427Z,46.82
2017-07-16T09:13:55.464Z,46.82
2017-07-16T09:14:55.481Z,46.72
2017-07-16T09:15:55.654Z,46.82
2017-07-16T09:16:55.538Z,46.72
2017-07-16T09:17:55.252Z,46.62
2017-07-16T09:18:55.280Z,46.72
2017-07-16T09:19:55.304Z,46.53
2017-07-16T09:20:55.832Z,46.53
2017-07-16T09:21:55.682Z,46.82
2017-07-16T09:22:55.711Z,46.72
2017-07-16T09:23:55.748Z,46.62
2017-07-16T09:24:55.769Z,46.62
2017-07-16T09:25:55.801Z,46.72
2017-07-16T09:26:55.546Z,46.62
2017-07-16T09:27:55.540Z,46.82
2017-07-16T09:28:55.885Z,46.62
2017-07-16T09:29:55.594Z,46.72
2017-07-16T09:30:56.194Z,46.62
2017-07-16T09:31:55.654Z,46.82
2017-07-16T09:32:56.011Z,46.82
2017-07-16T09:33:55.708Z,46.62
2017-07-16T09:34:56.064Z,46.72
2017-07-16T09:35:56.337Z,46.92
2017-07-16T09:36:56.114Z,47.11
2017-07-16T09:37:56.171Z,47.11
2017-07-16T09:38:55.848Z,47.2
2017-07-16T09:39:55.876Z,46.82
2017-07-16T09:40:56.585Z,47.4
2017-07-16T09:41:55.938Z,46.92
2017-07-16T09:42:56.290Z,46.62
2017-07-16T09:43:56.323Z,47.3
2017-07-16T09:44:56.062Z,46.62
2017-07-16T09:45:56.631Z,47.02
2017-07-16T09:46:56.406Z,46.72
2017-07-16T09:47:56.431Z,46.62
2017-07-16T09:48:56.142Z,46.72
2017-07-16T09:49:56.485Z,46.62
2017-07-16T09:50:56.782Z,46.72
2017-07-16T09:51:56.544Z,46.92
2017-07-16T09:52:56.259Z,46.62
2017-07-16T09:53:56.611Z,46.62
2017-07-16T09:54:56.641Z,46.72
2017-07-16T09:55:56.594Z,46.82
2017-07-16T09:56:56.682Z,46.62
2017-07-16T09:57:56.727Z,47.11
2017-07-16T09:58:56.748Z,46.92
2017-07-16T09:59:56.452Z,46.92
2017-07-16T10:00:56.738Z,46.82
2017-07-16T10:01:56.519Z,47.3
2017-07-16T10:02:56.548Z,47.02
2017-07-16T10:03:56.572Z,47.11
2017-07-16T10:04:56.604Z,46.82
2017-07-16T10:05:56.885Z,46.94
2017-07-16T10:06:56.986Z,46.94
2017-07-16T10:07:57.015Z,47.11
2017-07-16T10:08:57.032Z,46.72
2017-07-16T10:09:57.074Z,46.75
2017-07-16T10:10:57.039Z,46.94
2017-07-16T10:11:57.183Z,47.02
2017-07-16T10:12:56.834Z,46.84
2017-07-16T10:13:56.864Z,46.55
2017-07-16T10:14:57.221Z,47.6
2017-07-16T10:15:57.178Z,47.6
2017-07-16T10:16:56.943Z,46.72
2017-07-16T10:17:57.294Z,46.62
2017-07-16T10:18:57.333Z,47.62
2017-07-16T10:19:57.365Z,47.33
2017-07-16T10:20:57.642Z,47.23
2017-07-16T10:21:57.419Z,47.13
2017-07-16T10:22:57.127Z,47.42
2017-07-16T10:23:57.482Z,47.33
2017-07-16T10:24:57.185Z,47.42
2017-07-16T10:25:57.215Z,47.33
2017-07-16T10:26:57.563Z,47.62
2017-07-16T10:27:57.268Z,47.62
2017-07-16T10:28:57.617Z,46.84
2017-07-16T10:29:57.646Z,46.65
2017-07-16T10:30:57.670Z,46.75
2017-07-16T10:31:57.718Z,47.42
2017-07-16T10:32:57.454Z,46.75
2017-07-16T10:33:57.445Z,46.65
2017-07-16T10:34:57.798Z,47.13
2017-07-16T10:35:57.505Z,47.03
2017-07-16T10:36:57.534Z,46.84
2017-07-16T10:37:57.877Z,46.65
2017-07-16T10:38:57.911Z,46.65
2017-07-16T10:39:57.935Z,46.84
2017-07-16T10:40:57.645Z,46.65
2017-07-16T10:41:57.987Z,46.84
2017-07-16T10:42:58.026Z,46.55
2017-07-16T10:43:57.729Z,46.55
2017-07-16T10:44:57.770Z,46.84
2017-07-16T10:45:58.112Z,46.16
2017-07-16T10:46:58.150Z,46.16
2017-07-16T10:47:58.181Z,46.07
2017-07-16T10:48:58.190Z,46.26
2017-07-16T10:49:58.229Z,46.55
2017-07-16T10:50:58.271Z,46.65
2017-07-16T10:51:58.291Z,46.55
2017-07-16T10:52:58.317Z,46.58
2017-07-16T10:53:58.353Z,46.19
2017-07-16T10:54:58.379Z,46.19
2017-07-16T10:55:58.398Z,46.09
2017-07-16T10:56:58.120Z,46.19
2017-07-16T10:57:58.473Z,46.19
2017-07-16T10:58:58.507Z,46.28
2017-07-16T10:59:58.231Z,46.19
2017-07-16T11:00:58.232Z,45.99
2017-07-16T11:01:58.585Z,45.99
2017-07-16T11:02:58.291Z,45.8
2017-07-16T11:03:58.668Z,45.8
2017-07-16T11:04:58.679Z,46.48
2017-07-16T11:05:58.704Z,45.99
2017-07-16T11:06:58.413Z,46.19
2017-07-16T11:07:58.437Z,46.28
2017-07-16T11:08:58.467Z,46.38
2017-07-16T11:09:58.935Z,45.89
2017-07-16T11:10:58.528Z,46.38
2017-07-16T11:11:58.868Z,46.09
2017-07-16T11:12:58.582Z,46.09
2017-07-16T11:13:58.929Z,45.89
2017-07-16T11:14:58.963Z,46.19
2017-07-16T11:15:58.676Z,45.89
2017-07-16T11:16:58.720Z,45.89
2017-07-16T11:17:59.049Z,46.41
2017-07-16T11:18:58.756Z,45.8
2017-07-16T11:19:59.110Z,45.8
2017-07-16T11:20:58.816Z,45.7
2017-07-16T11:21:59.162Z,45.43
2017-07-16T11:22:59.194Z,45.53
2017-07-16T11:23:58.907Z,45.82
2017-07-16T11:24:59.264Z,45.43
2017-07-16T11:25:59.281Z,45.43
2017-07-16T11:26:59.248Z,45.43
2017-07-16T11:27:59.346Z,45.72
2017-07-16T11:28:59.374Z,45.62
2017-07-16T11:29:59.394Z,45.82
2017-07-16T11:30:59.432Z,45.53
2017-07-16T11:31:59.709Z,45.92
2017-07-16T11:32:59.503Z,45.62
2017-07-16T11:33:59.523Z,45.72
2017-07-16T11:34:59.237Z,45.24
2017-07-16T11:35:59.578Z,45.43
2017-07-16T11:36:59.640Z,46.01
2017-07-16T11:37:59.642Z,45.72
2017-07-16T11:38:59.355Z,45.62
2017-07-16T11:39:59.699Z,45.43
2017-07-16T11:40:59.722Z,45.72
2017-07-16T11:42:00.061Z,45.62
2017-07-16T11:42:59.466Z,45.62
2017-07-16T11:43:59.820Z,45.53
2017-07-16T11:44:59.536Z,45.24
2017-07-16T11:45:59.873Z,45.53
2017-07-16T11:46:59.889Z,45.53
2017-07-16T11:47:59.951Z,45.53
2017-07-16T11:48:59.975Z,45.62
2017-07-16T11:49:59.677Z,46.01
2017-07-16T11:50:59.709Z,45.43
2017-07-16T11:52:00.307Z,45.45
2017-07-16T11:53:00.085Z,44.85
2017-07-16T11:54:00.119Z,45.07
2017-07-16T11:55:00.199Z,44.87
2017-07-16T11:56:00.176Z,44.97
2017-07-16T11:56:59.889Z,44.97
2017-07-16T11:57:59.909Z,44.87
2017-07-16T11:58:59.943Z,45.07
2017-07-16T12:00:00.292Z,44.58
2017-07-16T12:01:00.329Z,45.07
2017-07-16T12:02:00.041Z,44.78
2017-07-16T12:03:00.385Z,44.48
2017-07-16T12:04:00.420Z,44.31
2017-07-16T12:05:00.125Z,44.41
2017-07-16T12:06:00.475Z,44.21
2017-07-16T12:07:00.185Z,44.12
2017-07-16T12:08:00.218Z,44.6
2017-07-16T12:09:00.246Z,44.51
2017-07-16T12:10:00.591Z,44.02
2017-07-16T12:11:00.301Z,43.92
2017-07-16T12:12:00.654Z,44.41
2017-07-16T12:13:00.368Z,44.31
2017-07-16T12:14:00.390Z,44.12
2017-07-16T12:15:00.740Z,44.12
2017-07-16T12:16:00.454Z,43.92
2017-07-16T12:17:00.487Z,43.63
2017-07-16T12:18:00.824Z,43.92
2017-07-16T12:19:00.876Z,44.31
2017-07-16T12:20:00.903Z,44.02
2017-07-16T12:21:00.604Z,43.54
2017-07-16T12:22:00.949Z,43.73
2017-07-16T12:23:00.986Z,43.54
2017-07-16T12:24:01.018Z,43.73
2017-07-16T12:25:01.048Z,44.02
2017-07-16T12:26:01.076Z,43.65
2017-07-16T12:27:00.789Z,43.82
2017-07-16T12:28:00.815Z,44.21
2017-07-16T12:29:00.848Z,43.54
2017-07-16T12:30:01.196Z,43.92
2017-07-16T12:31:01.222Z,44.31
2017-07-16T12:32:01.258Z,43.92
2017-07-16T12:33:01.287Z,43.63
2017-07-16T12:34:01.316Z,43.63
2017-07-16T12:35:01.033Z,43.63
2017-07-16T12:36:01.377Z,44.12
2017-07-16T12:37:01.088Z,43.63
2017-07-16T12:38:01.430Z,43.65
2017-07-16T12:39:01.464Z,43.34
2017-07-16T12:40:01.489Z,43.34
2017-07-16T12:41:01.529Z,44.04
2017-07-16T12:42:01.239Z,43.63
2017-07-16T12:43:01.587Z,42.85
2017-07-16T12:44:01.616Z,43.44
2017-07-16T12:45:01.649Z,43.34
2017-07-16T12:46:01.675Z,43.15
2017-07-16T12:47:01.382Z,43.46
2017-07-16T12:48:01.738Z,43.73
2017-07-16T12:49:01.761Z,43.73
2017-07-16T12:50:01.792Z,43.63
2017-07-16T12:51:01.509Z,43.44
2017-07-16T12:52:01.858Z,43.36
2017-07-16T12:53:01.892Z,43.16
2017-07-16T12:54:01.593Z,43.07
2017-07-16T12:55:01.972Z,43.46